Palmyra, Maine
Current Conditions -  °F | °C
As of 3:15 PM on Thursday 29 Jan 2015 (Local Time) from KWVL Reporting Station
Clear Clear  
Wind Chill: 23°   Ceiling: Unl
Heat Index: 28°   Visibility: 10mi
Dew Point:   Wind: 5mph
Humidity: 31%   Direction: 230°SW
Pressure: 30.14"   Gusts: NA
Location:  44.85°N, 69.36°W
Report Text: KWVL 292015Z 23004KT 10SM CLR M02/M17 A3014 RMK AO1
Loading
Personal Weather Stations






























Interactive Weather Map New forecast layout! Learn more

10-Day Weather Forecast

Advertisements
Track Severe Weather on mobile